createdAt,value
2022-08-09T00:00:48.565Z,1.57
2022-08-09T00:01:54.566Z,1.20
2022-08-09T00:02:57.112Z,1.30
2022-08-09T00:04:10.028Z,1.30
2022-08-09T00:06:17.699Z,1.30
2022-08-09T00:06:44.313Z,1.50
2022-08-09T00:07:47.524Z,1.20
2022-08-09T00:08:50.457Z,1.47
2022-08-09T00:09:53.621Z,1.43
2022-08-09T00:10:55.303Z,1.43
2022-08-09T00:12:04.578Z,1.40
2022-08-09T00:13:16.971Z,1.37
2022-08-09T00:14:30.649Z,1.50
2022-08-09T00:16:00.142Z,1.47
2022-08-09T00:17:01.736Z,1.33
2022-08-09T00:18:05.994Z,1.47
2022-08-09T00:19:13.515Z,1.27
2022-08-09T00:20:21.183Z,1.63
2022-08-09T00:21:23.735Z,1.30
2022-08-09T00:22:35.082Z,1.30
2022-08-09T00:23:57.368Z,1.60
2022-08-09T00:24:59.989Z,1.40
2022-08-09T00:26:08.674Z,1.57
2022-08-09T00:27:13.012Z,1.50
2022-08-09T00:28:14.791Z,1.30
2022-08-09T00:29:39.582Z,1.30
2022-08-09T00:30:39.164Z,1.10
2022-08-09T00:31:58.401Z,1.70
2022-08-09T00:33:01.779Z,1.37
2022-08-09T00:34:03.576Z,1.27
2022-08-09T00:35:06.305Z,1.17
2022-08-09T00:36:09.451Z,1.50
2022-08-09T00:37:11.154Z,1.33
2022-08-09T00:38:13.689Z,1.40
2022-08-09T00:40:12.391Z,1.63
2022-08-09T00:40:40.113Z,1.50
2022-08-09T00:44:15.133Z,1.50
2022-08-09T00:44:25.668Z,1.53
2022-08-09T00:44:37.870Z,1.60
2022-08-09T00:45:39.530Z,1.50
2022-08-09T00:46:56.865Z,1.50
2022-08-09T00:48:05.596Z,1.23
2022-08-09T00:49:07.606Z,1.40
2022-08-09T00:50:14.828Z,1.40
2022-08-09T00:51:17.843Z,1.50
2022-08-09T00:52:20.434Z,1.53
2022-08-09T00:53:24.279Z,1.23
2022-08-09T00:54:31.367Z,1.20
2022-08-09T00:56:05.521Z,1.80
2022-08-09T00:57:00.686Z,1.50
2022-08-09T00:58:03.150Z,1.20
2022-08-09T00:59:07.623Z,1.17
2022-08-09T01:00:21.725Z,1.03
2022-08-09T01:01:44.863Z,1.27
2022-08-09T01:02:49.471Z,1.30
2022-08-09T01:03:59.311Z,1.50
2022-08-09T01:05:14.251Z,1.23
2022-08-09T01:06:35.139Z,1.47
2022-08-09T01:08:00.960Z,1.63
2022-08-09T01:09:23.279Z,1.53
2022-08-09T01:10:40.095Z,1.67
2022-08-09T01:12:03.149Z,1.63
2022-08-09T01:13:16.874Z,1.47
2022-08-09T01:14:36.727Z,1.60
2022-08-09T01:15:52.611Z,1.43
2022-08-09T01:17:17.893Z,1.37
2022-08-09T01:18:29.894Z,1.80
2022-08-09T01:20:01.692Z,1.70
2022-08-09T01:21:13.586Z,1.67
2022-08-09T01:22:40.726Z,1.60
2022-08-09T01:24:07.447Z,1.43
2022-08-09T01:25:37.463Z,1.57
2022-08-09T01:26:56.160Z,1.63
2022-08-09T01:28:01.060Z,1.23
2022-08-09T01:29:04.534Z,1.63
2022-08-09T01:30:28.843Z,1.47
2022-08-09T01:32:30.653Z,1.57
2022-08-09T01:32:58.037Z,1.83
2022-08-09T01:34:04.282Z,1.87
2022-08-09T01:35:37.510Z,1.30
2022-08-09T01:36:41.955Z,1.60
2022-08-09T01:38:08.231Z,1.17
2022-08-09T01:39:07.541Z,2.23
2022-08-09T01:40:10.312Z,1.80
2022-08-09T01:41:29.836Z,1.60
2022-08-09T01:42:33.519Z,1.30
2022-08-09T01:43:48.025Z,1.20
2022-08-09T01:44:54.900Z,1.50
2022-08-09T01:45:57.998Z,1.53
2022-08-09T01:47:01.721Z,1.27
2022-08-09T01:48:06.191Z,1.60
2022-08-09T01:49:12.775Z,1.47
2022-08-09T01:50:17.139Z,1.67
2022-08-09T01:51:22.830Z,1.60
2022-08-09T01:52:26.211Z,1.70
2022-08-09T01:53:41.464Z,1.50
2022-08-09T01:54:50.693Z,1.77
2022-08-09T01:55:54.376Z,1.60
2022-08-09T01:56:58.930Z,1.73
2022-08-09T01:58:06.780Z,1.40
2022-08-09T01:59:16.098Z,1.50
2022-08-09T02:00:35.279Z,1.47
2022-08-09T02:01:59.103Z,1.43
2022-08-09T02:03:05.112Z,1.60
2022-08-09T02:04:09.728Z,1.37
2022-08-09T02:05:15.342Z,1.97
2022-08-09T02:06:45.552Z,1.97
2022-08-09T02:08:41.014Z,1.33
2022-08-09T02:09:26.948Z,1.53
2022-08-09T02:10:51.032Z,1.70
2022-08-09T02:11:54.451Z,1.57
2022-08-09T02:13:02.939Z,1.80
2022-08-09T02:14:07.839Z,1.20
2022-08-09T02:15:16.664Z,1.40
2022-08-09T02:16:18.921Z,1.73
2022-08-09T02:18:10.611Z,2.20
2022-08-09T02:19:00.395Z,1.77
2022-08-09T02:20:02.431Z,2.00
2022-08-09T02:21:09.466Z,1.77
2022-08-09T02:22:40.661Z,1.20
2022-08-09T02:23:54.540Z,1.80
2022-08-09T02:25:00.219Z,1.60
2022-08-09T02:26:03.447Z,2.03
2022-08-09T02:27:09.026Z,1.30
2022-08-09T02:28:19.130Z,1.80
2022-08-09T02:29:23.808Z,1.50
2022-08-09T02:30:32.428Z,2.17
2022-08-09T02:31:41.166Z,1.70
2022-08-09T02:32:47.576Z,1.90
2022-08-09T02:34:06.737Z,1.73
2022-08-09T02:35:25.703Z,1.87
2022-08-09T02:36:44.979Z,1.70
2022-08-09T02:37:55.508Z,1.50
2022-08-09T02:39:03.180Z,2.03
2022-08-09T02:40:15.745Z,1.90
2022-08-09T02:41:34.024Z,1.70
2022-08-09T02:42:39.419Z,1.70
2022-08-09T02:43:55.132Z,1.93
2022-08-09T02:45:07.195Z,1.83
2022-08-09T02:46:13.380Z,2.10
2022-08-09T02:47:18.920Z,2.00
2022-08-09T02:48:31.225Z,1.63
2022-08-09T02:49:41.353Z,1.70
2022-08-09T02:50:55.756Z,2.43
2022-08-09T02:51:59.613Z,1.43
2022-08-09T02:53:17.376Z,2.20
2022-08-09T02:54:30.887Z,4.33
2022-08-09T02:55:46.372Z,2.70
2022-08-09T02:56:53.921Z,2.50
2022-08-09T02:58:37.039Z,2.53
2022-08-09T02:59:26.658Z,2.77
2022-08-09T03:00:57.657Z,2.33
2022-08-09T03:02:06.701Z,1.60
2022-08-09T03:03:11.390Z,1.93
2022-08-09T03:04:19.110Z,1.50
2022-08-09T03:05:22.821Z,1.63
2022-08-09T03:06:27.612Z,2.10
2022-08-09T03:07:30.884Z,1.90
2022-08-09T03:08:35.853Z,2.07
2022-08-09T03:09:42.617Z,2.07
2022-08-09T03:10:50.900Z,1.60
2022-08-09T03:12:05.492Z,1.70
2022-08-09T03:13:10.123Z,2.03
2022-08-09T03:14:13.476Z,1.60
2022-08-09T03:15:16.100Z,1.73
2022-08-09T03:16:21.294Z,2.17
2022-08-09T03:17:27.048Z,2.93
2022-08-09T03:18:31.305Z,2.10
2022-08-09T03:19:59.520Z,1.60
2022-08-09T03:20:58.026Z,1.67
2022-08-09T03:22:03.225Z,1.90
2022-08-09T03:23:14.945Z,1.97
2022-08-09T03:24:31.717Z,1.63
2022-08-09T03:25:58.035Z,1.97
2022-08-09T03:27:02.928Z,1.70
2022-08-09T03:28:11.273Z,2.80
2022-08-09T03:29:22.772Z,2.40
2022-08-09T03:30:33.188Z,2.33
2022-08-09T03:31:42.385Z,2.30
2022-08-09T03:32:45.784Z,2.20
2022-08-09T03:33:54.545Z,2.30
2022-08-09T03:34:56.794Z,1.60
2022-08-09T03:36:13.510Z,1.97
2022-08-09T03:37:55.754Z,2.20
2022-08-09T03:38:43.060Z,2.13
2022-08-09T03:39:48.702Z,1.83
2022-08-09T03:40:58.077Z,1.73
2022-08-09T03:42:06.109Z,1.80
2022-08-09T03:43:08.617Z,1.80
2022-08-09T03:44:13.175Z,1.90
2022-08-09T03:45:17.400Z,1.90
2022-08-09T03:46:39.330Z,1.80
2022-08-09T03:47:42.075Z,2.00
2022-08-09T03:48:52.971Z,2.23
2022-08-09T03:49:58.257Z,1.97
2022-08-09T03:51:00.800Z,1.97
2022-08-09T03:52:04.389Z,2.20
2022-08-09T03:53:10.765Z,2.10
2022-08-09T03:54:14.695Z,1.90
2022-08-09T03:55:17.850Z,2.30
2022-08-09T03:56:19.768Z,1.90
2022-08-09T03:57:21.825Z,1.87
2022-08-09T03:58:23.641Z,1.80
2022-08-09T03:59:33.006Z,2.37
2022-08-09T04:00:48.951Z,1.70
2022-08-09T04:01:51.506Z,1.97
2022-08-09T04:02:55.577Z,1.80
2022-08-09T04:04:03.851Z,1.80
2022-08-09T04:05:14.009Z,2.00
2022-08-09T04:06:28.916Z,2.20
2022-08-09T04:07:47.836Z,2.43
2022-08-09T04:08:53.564Z,2.90
2022-08-09T04:09:55.441Z,2.13
2022-08-09T04:11:01.588Z,2.13
2022-08-09T04:12:11.768Z,2.50
2022-08-09T04:13:13.874Z,2.13
2022-08-09T04:14:37.305Z,2.40
2022-08-09T04:16:18.613Z,2.57
2022-08-09T04:17:08.959Z,2.57
2022-08-09T04:18:17.796Z,2.20
2022-08-09T04:19:30.369Z,2.20
2022-08-09T04:20:42.046Z,2.00
2022-08-09T04:21:46.366Z,2.43
2022-08-09T04:22:49.044Z,2.00
2022-08-09T04:23:57.669Z,2.30
2022-08-09T04:25:01.460Z,2.57
2022-08-09T04:26:04.835Z,2.77
2022-08-09T04:27:08.399Z,2.07
2022-08-09T04:28:10.532Z,2.47
2022-08-09T04:29:15.779Z,2.03
2022-08-09T04:30:20.940Z,2.30
2022-08-09T04:31:26.287Z,2.43
2022-08-09T04:32:39.798Z,2.20
2022-08-09T04:33:52.799Z,2.43
2022-08-09T04:34:58.697Z,2.30
2022-08-09T04:36:03.260Z,2.40
2022-08-09T04:37:04.872Z,2.43
2022-08-09T04:38:06.571Z,2.30
2022-08-09T04:39:11.317Z,2.50
2022-08-09T04:40:29.117Z,2.17
2022-08-09T04:41:43.955Z,2.80
2022-08-09T04:42:45.718Z,2.90
2022-08-09T04:44:05.266Z,2.70
2022-08-09T04:45:11.616Z,2.60
2022-08-09T04:46:19.435Z,2.23
2022-08-09T04:47:58.559Z,2.63
2022-08-09T04:48:58.405Z,2.27
2022-08-09T04:50:00.420Z,2.60
2022-08-09T04:51:02.047Z,2.60
2022-08-09T04:52:05.136Z,2.60
2022-08-09T04:53:13.161Z,2.97
2022-08-09T04:54:15.367Z,2.70
2022-08-09T04:55:19.074Z,2.57
2022-08-09T04:56:26.111Z,2.27
2022-08-09T04:57:58.444Z,2.60
2022-08-09T04:58:50.810Z,2.70
2022-08-09T04:59:55.619Z,2.70
2022-08-09T05:00:57.908Z,3.13
2022-08-09T05:02:02.916Z,3.03
2022-08-09T05:03:12.877Z,2.63
2022-08-09T05:04:30.871Z,2.60
2022-08-09T05:05:52.089Z,2.87
2022-08-09T05:06:55.004Z,2.60
2022-08-09T05:07:58.302Z,2.40
2022-08-09T05:09:01.269Z,2.43
2022-08-09T05:10:04.327Z,2.30
2022-08-09T05:11:07.478Z,2.37
2022-08-09T05:12:11.162Z,2.80
2022-08-09T05:13:14.617Z,2.80
2022-08-09T05:14:16.339Z,2.50
2022-08-09T05:15:24.698Z,3.07
2022-08-09T05:16:58.215Z,3.00
2022-08-09T05:18:42.646Z,3.17
2022-08-09T05:19:25.700Z,2.80
2022-08-09T05:20:29.726Z,2.80
2022-08-09T05:21:46.442Z,2.70
2022-08-09T05:23:59.498Z,3.13
2022-08-09T05:24:12.181Z,2.97
2022-08-09T05:25:16.490Z,2.73
2022-08-09T05:26:26.643Z,2.70
2022-08-09T05:27:46.306Z,3.30
2022-08-09T05:28:49.679Z,2.97
2022-08-09T05:29:53.837Z,2.43
2022-08-09T05:30:55.974Z,3.07
2022-08-09T05:32:00.599Z,2.33
2022-08-09T05:33:02.255Z,2.90
2022-08-09T05:34:04.027Z,2.57
2022-08-09T05:35:06.306Z,2.87
2022-08-09T05:36:09.355Z,2.90
2022-08-09T05:37:13.874Z,2.43
2022-08-09T05:38:21.960Z,2.70
2022-08-09T05:39:29.542Z,3.07
2022-08-09T05:40:31.515Z,3.37
2022-08-09T05:41:33.160Z,3.80
2022-08-09T05:42:36.303Z,4.00
2022-08-09T05:43:39.002Z,4.03
2022-08-09T05:44:50.469Z,4.63
2022-08-09T05:45:56.659Z,5.00
2022-08-09T05:46:58.954Z,5.93
2022-08-09T05:48:01.262Z,6.17
2022-08-09T05:49:03.337Z,5.73
2022-08-09T05:50:26.744Z,5.93
2022-08-09T05:51:46.073Z,5.80
2022-08-09T05:52:53.842Z,5.20
2022-08-09T05:53:57.339Z,5.20
2022-08-09T05:55:06.716Z,4.90
2022-08-09T05:56:09.119Z,4.40
2022-08-09T05:57:19.189Z,4.83
2022-08-09T05:58:20.999Z,3.90
2022-08-09T05:59:23.042Z,4.30
2022-08-09T06:00:30.225Z,4.10
2022-08-09T06:01:33.899Z,4.00
2022-08-09T06:02:46.800Z,3.80
2022-08-09T06:03:54.740Z,3.30
2022-08-09T06:05:00.706Z,3.87
2022-08-09T06:06:06.001Z,3.67
2022-08-09T06:07:09.349Z,3.30
2022-08-09T06:08:11.423Z,3.67
2022-08-09T06:09:55.105Z,3.10
2022-08-09T06:10:40.658Z,3.97
2022-08-09T06:11:57.325Z,2.97
2022-08-09T06:13:12.507Z,3.20
2022-08-09T06:14:20.737Z,3.20
2022-08-09T06:15:22.544Z,3.00
2022-08-09T06:16:29.604Z,3.53
2022-08-09T06:17:40.350Z,3.67
2022-08-09T06:18:42.324Z,3.17
2022-08-09T06:19:43.995Z,4.00
2022-08-09T06:20:54.404Z,4.07
2022-08-09T06:21:59.031Z,3.33
2022-08-09T06:23:00.727Z,3.60
2022-08-09T06:24:02.690Z,3.03
2022-08-09T06:25:04.912Z,2.90
2022-08-09T06:26:10.443Z,3.47
2022-08-09T06:27:15.726Z,3.33
2022-08-09T06:28:17.528Z,3.73
2022-08-09T06:29:22.339Z,3.53
2022-08-09T06:30:26.451Z,3.10
2022-08-09T06:31:39.283Z,3.60
2022-08-09T06:33:13.606Z,2.80
2022-08-09T06:34:05.367Z,3.43
2022-08-09T06:35:07.451Z,3.37
2022-08-09T06:36:11.957Z,3.00
2022-08-09T06:37:15.671Z,3.93
2022-08-09T06:38:17.400Z,4.50
2022-08-09T06:39:21.099Z,4.50
2022-08-09T06:40:24.210Z,4.33
2022-08-09T06:42:07.492Z,4.30
2022-08-09T06:42:48.440Z,4.23
2022-08-09T06:43:50.348Z,4.50
2022-08-09T06:44:55.541Z,4.50
2022-08-09T06:46:06.493Z,4.60
2022-08-09T06:47:13.761Z,5.00
2022-08-09T06:48:16.797Z,3.63
2022-08-09T06:50:12.795Z,3.97
2022-08-09T06:50:54.138Z,4.20
2022-08-09T06:51:55.768Z,4.00
2022-08-09T06:52:57.640Z,4.80
2022-08-09T06:54:00.935Z,3.97
2022-08-09T06:55:10.098Z,3.40
2022-08-09T06:56:14.635Z,3.93
2022-08-09T06:57:16.308Z,3.77
2022-08-09T07:00:47.719Z,4.00
2022-08-09T07:00:51.798Z,3.40
2022-08-09T07:01:01.598Z,3.63
2022-08-09T07:02:04.662Z,4.03
2022-08-09T07:03:06.956Z,3.53
2022-08-09T07:04:10.422Z,3.20
2022-08-09T07:05:12.315Z,2.80
2022-08-09T07:06:14.821Z,2.90
2022-08-09T07:07:58.430Z,2.40
2022-08-09T07:08:39.597Z,3.20
2022-08-09T07:09:56.022Z,2.67
2022-08-09T07:11:03.766Z,2.30
2022-08-09T07:12:06.122Z,2.90
2022-08-09T07:13:27.381Z,2.50
2022-08-09T07:14:29.696Z,2.30
2022-08-09T07:16:39.286Z,2.43
2022-08-09T07:16:57.889Z,1.77
2022-08-09T07:18:02.429Z,1.87
2022-08-09T07:19:05.807Z,1.80
2022-08-09T07:20:10.409Z,2.17
2022-08-09T07:21:11.994Z,1.80
2022-08-09T07:22:13.724Z,2.00
2022-08-09T07:23:18.989Z,2.60
2022-08-09T07:24:21.900Z,1.80
2022-08-09T07:25:39.037Z,2.03
2022-08-09T07:26:45.254Z,1.60
2022-08-09T07:27:55.487Z,2.10
2022-08-09T07:29:08.278Z,2.27
2022-08-09T07:30:14.856Z,1.70
2022-08-09T07:31:16.700Z,1.73
2022-08-09T07:32:18.413Z,1.57
2022-08-09T07:33:24.717Z,1.83
2022-08-09T07:34:30.263Z,1.60
2022-08-09T07:35:32.017Z,1.87
2022-08-09T07:36:53.571Z,1.50
2022-08-09T07:37:59.396Z,1.73
2022-08-09T07:39:02.343Z,1.90
2022-08-09T07:40:04.828Z,1.60
2022-08-09T07:41:11.634Z,1.70
2022-08-09T07:42:14.808Z,1.50
2022-08-09T07:43:17.113Z,1.77
2022-08-09T07:44:18.892Z,1.90
2022-08-09T07:45:39.787Z,1.37
2022-08-09T07:46:43.167Z,1.43
2022-08-09T07:48:00.815Z,1.70
2022-08-09T07:49:06.436Z,1.30
2022-08-09T07:50:09.969Z,1.63
2022-08-09T07:52:05.844Z,1.70
2022-08-09T07:52:35.646Z,1.60
2022-08-09T07:54:05.320Z,1.50
2022-08-09T07:55:01.061Z,1.90
2022-08-09T07:56:26.684Z,1.53
2022-08-09T07:57:35.915Z,1.63
2022-08-09T07:58:38.045Z,1.80
2022-08-09T07:59:45.952Z,1.40
2022-08-09T08:01:06.778Z,1.80
2022-08-09T08:02:19.868Z,1.67
2022-08-09T08:03:22.007Z,1.70
2022-08-09T08:04:32.154Z,1.93
2022-08-09T08:05:54.442Z,1.80
2022-08-09T08:07:00.389Z,1.90
2022-08-09T08:09:01.360Z,1.40
2022-08-09T08:09:42.932Z,1.17
2022-08-09T08:11:03.413Z,1.33
2022-08-09T08:12:24.666Z,1.80
2022-08-09T08:13:38.188Z,1.50
2022-08-09T08:14:52.318Z,1.43
2022-08-09T08:15:54.870Z,1.30
2022-08-09T08:17:00.576Z,1.42
2022-08-09T08:18:02.938Z,1.73
2022-08-09T08:19:05.490Z,1.70
2022-08-09T08:20:12.604Z,1.90
2022-08-09T08:21:15.280Z,2.10
2022-08-09T08:22:17.250Z,2.77
2022-08-09T08:23:27.297Z,2.20
2022-08-09T08:24:39.832Z,1.75
2022-08-09T08:25:46.693Z,1.80
2022-08-09T08:26:55.731Z,1.50
2022-08-09T08:27:58.717Z,1.90
2022-08-09T08:29:00.396Z,1.50
2022-08-09T08:30:05.100Z,1.50
2022-08-09T08:31:14.333Z,1.35
2022-08-09T08:32:24.309Z,1.30
2022-08-09T08:33:49.521Z,1.33
2022-08-09T08:34:55.409Z,1.30
2022-08-09T08:36:00.928Z,1.88
2022-08-09T08:37:05.644Z,1.40
2022-08-09T08:38:11.819Z,1.40
2022-08-09T08:39:14.702Z,1.33
2022-08-09T08:40:19.489Z,1.20
2022-08-09T08:41:22.295Z,1.20
2022-08-09T08:42:32.025Z,1.20
2022-08-09T08:43:34.316Z,1.40
2022-08-09T08:44:38.055Z,1.20
2022-08-09T08:45:51.735Z,1.20
2022-08-09T08:47:12.380Z,1.20
2022-08-09T08:48:19.303Z,1.30
2022-08-09T08:49:22.636Z,1.08
2022-08-09T08:50:40.060Z,1.25
2022-08-09T08:52:01.569Z,1.33
2022-08-09T08:53:15.681Z,1.70
2022-08-09T08:54:20.542Z,1.13
2022-08-09T08:55:32.158Z,1.20
2022-08-09T08:56:38.186Z,1.40
2022-08-09T08:57:42.283Z,1.30
2022-08-09T08:58:46.581Z,1.17
2022-08-09T08:59:53.783Z,1.25
2022-08-09T09:01:02.965Z,1.13
2022-08-09T09:02:30.797Z,1.45
2022-08-09T09:03:37.913Z,1.27
2022-08-09T09:04:52.836Z,1.10
2022-08-09T09:06:00.833Z,1.45
2022-08-09T09:07:11.068Z,1.05
2022-08-09T09:08:30.157Z,1.30
2022-08-09T09:09:58.417Z,1.20
2022-08-09T09:10:56.902Z,1.60
2022-08-09T09:12:00.225Z,1.33
2022-08-09T09:13:09.334Z,1.17
2022-08-09T09:14:19.788Z,1.48
2022-08-09T09:15:28.694Z,1.17
2022-08-09T09:16:34.137Z,1.25
2022-08-09T09:17:48.214Z,1.38
2022-08-09T09:19:15.619Z,1.60
2022-08-09T09:20:17.188Z,2.75
2022-08-09T09:21:26.378Z,2.50
2022-08-09T09:22:29.427Z,1.70
2022-08-09T09:23:49.678Z,1.60
2022-08-09T09:26:01.762Z,2.28
2022-08-09T09:26:25.876Z,1.30
2022-08-09T09:28:05.425Z,1.75
2022-08-09T09:29:04.320Z,1.63
2022-08-09T09:30:37.359Z,1.90
2022-08-09T09:32:06.542Z,1.60
2022-08-09T09:33:16.140Z,1.25
2022-08-09T09:34:20.722Z,1.50
2022-08-09T09:35:24.579Z,1.40
2022-08-09T09:36:38.543Z,1.30
2022-08-09T09:37:54.077Z,1.50
2022-08-09T09:38:58.689Z,1.42
2022-08-09T09:40:00.861Z,1.48
2022-08-09T09:41:04.731Z,1.80
2022-08-09T09:42:10.431Z,1.65
2022-08-09T09:43:20.954Z,1.75
2022-08-09T09:44:34.339Z,1.30
2022-08-09T09:47:32.640Z,1.88
2022-08-09T09:48:56.397Z,1.55
2022-08-09T09:50:14.731Z,1.33
2022-08-09T09:51:26.034Z,2.17
2022-08-09T09:52:54.196Z,1.67
2022-08-09T09:54:20.344Z,1.40
2022-08-09T09:55:28.338Z,1.35
2022-08-09T09:56:37.071Z,1.95
2022-08-09T09:58:15.902Z,1.73
2022-08-09T09:59:35.570Z,1.45
2022-08-09T10:00:54.027Z,1.50
2022-08-09T10:02:01.348Z,1.52
2022-08-09T10:03:09.346Z,1.50
2022-08-09T10:04:22.588Z,1.80
2022-08-09T10:06:00.993Z,1.50
2022-08-09T10:06:54.456Z,1.75
2022-08-09T10:08:27.364Z,1.88
2022-08-09T10:09:27.853Z,1.40
2022-08-09T10:10:31.648Z,1.50
2022-08-09T10:11:59.377Z,1.35
2022-08-09T10:12:56.194Z,1.00
2022-08-09T10:13:58.191Z,1.70
2022-08-09T10:15:17.262Z,1.58
2022-08-09T10:16:56.587Z,1.30
2022-08-09T10:18:11.016Z,1.80
2022-08-09T10:19:13.980Z,1.20
2022-08-09T10:20:27.592Z,1.13
2022-08-09T10:21:48.817Z,1.77
2022-08-09T10:23:01.091Z,1.45
2022-08-09T10:24:04.963Z,1.60
2022-08-09T10:25:11.304Z,1.75
2022-08-09T10:26:16.358Z,1.48
2022-08-09T10:27:28.533Z,1.10
2022-08-09T10:28:38.376Z,1.20
2022-08-09T10:30:49.326Z,1.20
2022-08-09T10:32:40.364Z,1.40
2022-08-09T10:34:10.633Z,1.50
2022-08-09T10:35:11.144Z,2.08
2022-08-09T10:36:16.495Z,1.58
2022-08-09T10:37:23.499Z,1.60
2022-08-09T10:38:54.834Z,1.67
2022-08-09T10:39:49.353Z,1.58
2022-08-09T10:40:51.494Z,1.52
2022-08-09T10:41:53.797Z,1.10
2022-08-09T10:42:57.156Z,1.52
2022-08-09T10:44:02.030Z,1.50
2022-08-09T10:45:10.571Z,1.30
2022-08-09T10:46:29.526Z,1.80
2022-08-09T10:48:26.151Z,1.52
2022-08-09T10:49:49.996Z,1.50
2022-08-09T10:51:29.777Z,1.50
2022-08-09T10:53:10.364Z,1.35
2022-08-09T10:54:14.033Z,1.40
2022-08-09T10:55:25.471Z,2.05
2022-08-09T10:56:33.980Z,1.30
2022-08-09T10:57:37.677Z,2.25
2022-08-09T10:58:39.900Z,1.88
2022-08-09T10:59:55.772Z,1.60
2022-08-09T11:03:03.068Z,1.67
2022-08-09T11:03:18.755Z,1.60
2022-08-09T11:04:19.859Z,1.85
2022-08-09T11:05:31.621Z,1.20
2022-08-09T11:06:37.285Z,1.58
2022-08-09T11:07:58.174Z,1.30
2022-08-09T11:09:15.727Z,1.33
2022-08-09T11:10:53.233Z,1.48
2022-08-09T11:11:59.439Z,1.50
2022-08-09T11:13:49.198Z,1.95
2022-08-09T11:14:42.043Z,1.85
2022-08-09T11:16:04.444Z,1.83
2022-08-09T11:17:15.838Z,1.25
2022-08-09T11:18:45.815Z,1.70
2022-08-09T11:20:11.425Z,1.63
2022-08-09T11:21:57.381Z,1.33
2022-08-09T11:23:12.113Z,1.50
2022-08-09T11:24:14.865Z,1.80
2022-08-09T11:25:36.320Z,2.05
2022-08-09T11:26:54.693Z,2.08
2022-08-09T11:28:05.380Z,1.33
2022-08-09T11:30:06.451Z,1.50
2022-08-09T11:31:53.138Z,1.45
2022-08-09T11:32:59.522Z,2.13
2022-08-09T11:34:06.749Z,1.85
2022-08-09T11:35:26.779Z,1.38
2022-08-09T11:36:44.834Z,1.48
2022-08-09T11:37:49.814Z,2.00
2022-08-09T11:39:02.753Z,2.03
2022-08-09T11:40:08.204Z,1.88
2022-08-09T11:41:14.090Z,1.45
2022-08-09T11:42:47.047Z,1.38
2022-08-09T11:43:52.062Z,1.38
2022-08-09T11:44:57.289Z,1.45
2022-08-09T11:46:05.909Z,1.35
2022-08-09T11:47:10.941Z,1.50
2022-08-09T11:48:25.982Z,1.40
2022-08-09T11:50:55.431Z,1.40
2022-08-09T11:53:00.770Z,1.33
2022-08-09T11:53:15.609Z,1.50
2022-08-09T11:54:29.742Z,1.25
2022-08-09T11:55:52.322Z,1.55
2022-08-09T11:57:56.464Z,1.80
2022-08-09T11:59:00.042Z,1.63
2022-08-09T12:00:16.200Z,1.90
2022-08-09T12:02:18.306Z,1.45
2022-08-09T12:02:59.031Z,1.30
2022-08-09T12:04:04.856Z,1.30
2022-08-09T12:05:07.253Z,1.60
2022-08-09T12:06:24.698Z,1.40
2022-08-09T12:07:41.120Z,1.25
2022-08-09T12:08:56.031Z,1.90
2022-08-09T12:10:02.454Z,1.55
2022-08-09T12:11:04.646Z,1.95
2022-08-09T12:12:20.187Z,1.52
2022-08-09T12:14:08.351Z,1.98
2022-08-09T12:15:07.857Z,1.45
2022-08-09T12:16:25.636Z,1.52
2022-08-09T12:17:43.500Z,1.02
2022-08-09T12:18:53.930Z,1.65
2022-08-09T12:19:59.339Z,1.20
2022-08-09T12:21:04.590Z,1.27
2022-08-09T12:22:27.213Z,1.50
2022-08-09T12:23:57.853Z,1.15
2022-08-09T12:25:11.351Z,2.05
2022-08-09T12:26:25.587Z,1.20
2022-08-09T12:28:58.634Z,1.50
2022-08-09T12:29:14.404Z,1.25
2022-08-09T12:30:36.349Z,2.05
2022-08-09T12:32:01.985Z,1.52
2022-08-09T12:33:02.808Z,2.05
2022-08-09T12:34:05.228Z,2.33
2022-08-09T12:35:11.045Z,1.63
2022-08-09T12:36:27.439Z,1.70
2022-08-09T12:37:50.411Z,1.27
2022-08-09T12:38:54.556Z,1.50
2022-08-09T12:40:03.800Z,2.55
2022-08-09T12:41:08.454Z,2.00
2022-08-09T12:42:16.351Z,1.50
2022-08-09T12:44:05.930Z,1.70
2022-08-09T12:44:52.203Z,1.33
2022-08-09T12:45:59.559Z,1.38
2022-08-09T12:47:02.419Z,1.45
2022-08-09T12:48:20.550Z,1.70
2022-08-09T12:49:33.590Z,1.58
2022-08-09T12:50:37.193Z,1.10
2022-08-09T12:52:01.337Z,1.33
2022-08-09T12:53:09.400Z,1.40
2022-08-09T12:54:19.548Z,1.35
2022-08-09T12:56:14.539Z,1.45
2022-08-09T12:56:54.718Z,1.27
2022-08-09T12:57:59.038Z,1.52
2022-08-09T12:59:08.035Z,1.50
2022-08-09T13:00:19.172Z,1.25
2022-08-09T13:01:28.413Z,1.23
2022-08-09T13:02:55.384Z,1.30
2022-08-09T13:04:12.183Z,1.42
2022-08-09T13:05:51.512Z,1.48
2022-08-09T13:07:16.496Z,0.90
2022-08-09T13:08:21.182Z,1.10
2022-08-09T13:09:52.601Z,1.58
2022-08-09T13:10:58.216Z,1.55
2022-08-09T13:12:05.559Z,1.50
2022-08-09T13:13:10.141Z,1.25
2022-08-09T13:14:41.587Z,1.15
2022-08-09T13:15:59.330Z,1.50
2022-08-09T13:17:16.090Z,1.60
2022-08-09T13:18:27.080Z,1.42
2022-08-09T13:20:08.355Z,1.27
2022-08-09T13:22:33.059Z,1.35
2022-08-09T13:22:35.901Z,1.15
2022-08-09T13:24:16.422Z,1.10
2022-08-09T13:25:11.863Z,1.20
2022-08-09T13:26:39.166Z,1.10
2022-08-09T13:27:48.730Z,1.42
2022-08-09T13:29:16.523Z,1.70
2022-08-09T13:31:10.932Z,1.15
2022-08-09T13:32:16.610Z,1.20
2022-08-09T13:33:24.591Z,1.23
2022-08-09T13:34:46.670Z,1.20
2022-08-09T13:36:37.633Z,1.30
2022-08-09T13:37:12.140Z,1.55
2022-08-09T13:38:17.818Z,1.40
2022-08-09T13:41:54.737Z,1.42
2022-08-09T13:41:55.411Z,1.05
2022-08-09T13:42:21.933Z,1.33
2022-08-09T13:43:30.213Z,1.90
2022-08-09T13:44:38.467Z,1.20
2022-08-09T13:46:44.608Z,1.10
2022-08-09T13:47:26.758Z,1.55
2022-08-09T13:48:34.405Z,1.40
2022-08-09T13:49:39.767Z,1.30
2022-08-09T13:50:58.265Z,1.35
2022-08-09T13:52:01.263Z,1.10
2022-08-09T13:53:03.165Z,1.88
2022-08-09T13:54:05.327Z,1.60
2022-08-09T13:55:13.782Z,1.42
2022-08-09T13:56:15.600Z,2.05
2022-08-09T13:57:37.017Z,1.77
2022-08-09T13:58:41.715Z,1.17
2022-08-09T13:59:43.518Z,1.33
2022-08-09T14:00:50.351Z,1.80
2022-08-09T14:02:00.435Z,2.00
2022-08-09T14:04:02.403Z,1.27
2022-08-09T14:04:26.528Z,1.90
2022-08-09T14:05:56.652Z,1.30
2022-08-09T14:06:57.788Z,1.52
2022-08-09T14:08:04.391Z,1.13
2022-08-09T14:09:06.450Z,1.25
2022-08-09T14:10:17.549Z,1.20
2022-08-09T14:11:32.930Z,1.20
2022-08-09T14:12:49.263Z,1.55
2022-08-09T14:14:23.709Z,1.90
2022-08-09T14:16:07.269Z,1.90
2022-08-09T14:16:34.723Z,1.05
2022-08-09T14:18:18.995Z,2.10
2022-08-09T14:18:59.537Z,1.20
2022-08-09T14:20:01.896Z,1.20
2022-08-09T14:21:06.072Z,1.30
2022-08-09T14:22:07.979Z,1.58
2022-08-09T14:23:11.036Z,1.75
2022-08-09T14:24:32.014Z,1.80
2022-08-09T14:25:42.802Z,1.42
2022-08-09T14:26:46.793Z,2.10
2022-08-09T14:27:58.196Z,1.63
2022-08-09T14:29:03.332Z,1.65
2022-08-09T14:30:36.922Z,1.70
2022-08-09T14:31:35.880Z,1.70
2022-08-09T14:32:48.993Z,1.40
2022-08-09T14:33:54.539Z,1.15
2022-08-09T14:34:56.913Z,1.48
2022-08-09T14:35:58.687Z,1.90
2022-08-09T14:37:20.498Z,1.98
2022-08-09T14:38:29.938Z,1.52
2022-08-09T14:39:40.517Z,1.50
2022-08-09T14:41:01.414Z,1.98
2022-08-09T14:42:06.435Z,2.38
2022-08-09T14:43:08.845Z,1.50
2022-08-09T14:44:11.451Z,2.08
2022-08-09T14:46:40.561Z,1.50
2022-08-09T14:46:54.078Z,1.35
2022-08-09T14:47:59.715Z,1.10
2022-08-09T14:49:02.885Z,1.15
2022-08-09T14:50:07.115Z,1.40
2022-08-09T14:51:09.102Z,1.20
2022-08-09T14:52:11.007Z,1.23
2022-08-09T14:53:15.683Z,1.30
2022-08-09T14:54:22.401Z,1.33
2022-08-09T14:55:32.590Z,1.15
2022-08-09T14:56:34.888Z,1.20
2022-08-09T14:57:56.449Z,2.17
2022-08-09T14:59:00.658Z,1.90
2022-08-09T15:00:03.205Z,1.40
2022-08-09T15:01:05.853Z,1.50
2022-08-09T15:02:08.936Z,1.70
2022-08-09T15:03:11.405Z,1.40
2022-08-09T15:04:18.385Z,1.30
2022-08-09T15:05:20.576Z,1.85
2022-08-09T15:06:22.186Z,2.17
2022-08-09T15:07:27.197Z,1.60
2022-08-09T15:08:36.709Z,1.75
2022-08-09T15:10:07.461Z,1.45
2022-08-09T15:11:07.058Z,1.60
2022-08-09T15:12:09.690Z,1.80
2022-08-09T15:13:13.308Z,1.75
2022-08-09T15:14:15.320Z,1.70
2022-08-09T15:15:21.946Z,1.58
2022-08-09T15:16:24.084Z,1.50
2022-08-09T15:17:32.105Z,1.50
2022-08-09T15:18:43.896Z,1.95
2022-08-09T15:19:54.643Z,1.70
2022-08-09T15:21:55.136Z,1.67
2022-08-09T15:22:25.927Z,1.10
2022-08-09T15:24:02.619Z,1.05
2022-08-09T15:24:49.774Z,1.42
2022-08-09T15:25:51.812Z,1.00
2022-08-09T15:26:53.606Z,1.25
2022-08-09T15:28:00.997Z,1.08
2022-08-09T15:29:05.051Z,1.50
2022-08-09T15:30:57.554Z,1.63
2022-08-09T15:31:41.465Z,1.52
2022-08-09T15:32:45.640Z,1.20
2022-08-09T15:34:17.227Z,1.63
2022-08-09T15:35:18.705Z,1.80
2022-08-09T15:36:31.662Z,1.38
2022-08-09T15:37:37.541Z,1.30
2022-08-09T15:39:00.091Z,1.52
2022-08-09T15:40:03.948Z,1.48
2022-08-09T15:41:13.535Z,1.50
2022-08-09T15:42:24.028Z,1.25
2022-08-09T15:43:29.991Z,1.60
2022-08-09T15:44:38.955Z,1.38
2022-08-09T15:45:52.032Z,1.67
2022-08-09T15:47:03.676Z,1.70
2022-08-09T15:48:27.911Z,1.70